createdAt,value
2023-01-23T00:01:43.732Z,102821.84
2023-01-23T00:04:14.374Z,102828.38
2023-01-23T00:06:43.845Z,102813.50
2023-01-23T00:09:11.780Z,102826.84
2023-01-23T00:11:39.994Z,102825.66
2023-01-23T00:14:07.894Z,102825.41
2023-01-23T00:16:35.824Z,102826.69
2023-01-23T00:19:03.804Z,102831.03
2023-01-23T00:21:31.938Z,102826.75
2023-01-23T00:24:02.721Z,102824.97
2023-01-23T00:26:33.700Z,102828.50
2023-01-23T00:29:02.109Z,102830.13
2023-01-23T00:31:32.069Z,102827.31
2023-01-23T00:34:02.318Z,102819.91
2023-01-23T00:36:31.575Z,102832.31
2023-01-23T00:39:01.071Z,102813.84
2023-01-23T00:41:29.882Z,102817.41
2023-01-23T00:43:57.780Z,102817.91
2023-01-23T00:46:26.240Z,102821.34
2023-01-23T00:48:54.137Z,102814.44
2023-01-23T00:51:22.046Z,102816.84
2023-01-23T00:53:49.809Z,102823.22
2023-01-23T00:56:18.996Z,102820.44
2023-01-23T00:58:46.779Z,102822.09
2023-01-23T01:01:16.129Z,102832.81
2023-01-23T01:03:45.786Z,102834.00
2023-01-23T01:06:16.850Z,102824.25
2023-01-23T01:08:45.726Z,102832.53
2023-01-23T01:11:15.426Z,102832.19
2023-01-23T01:13:45.565Z,102836.56
2023-01-23T01:16:15.706Z,102846.41
2023-01-23T01:18:45.168Z,102853.56
2023-01-23T01:21:18.889Z,102844.63
2023-01-23T01:23:47.510Z,102847.09
2023-01-23T01:26:18.920Z,102849.75
2023-01-23T01:28:50.858Z,102858.13
2023-01-23T01:31:19.562Z,102861.53
2023-01-23T01:33:49.372Z,102859.00
2023-01-23T01:36:21.364Z,102869.22
2023-01-23T01:38:50.436Z,102865.13
2023-01-23T01:41:18.831Z,102868.19
2023-01-23T01:43:49.438Z,102870.41
2023-01-23T01:46:24.520Z,102871.31
2023-01-23T01:49:06.022Z,102881.72
2023-01-23T01:51:38.544Z,102868.56
2023-01-23T01:54:13.565Z,102888.72
2023-01-23T01:56:47.668Z,102890.84
2023-01-23T01:59:41.191Z,102887.44
2023-01-23T02:02:14.286Z,102895.13
2023-01-23T02:04:53.233Z,102895.47
2023-01-23T02:07:26.999Z,102896.66
2023-01-23T02:09:58.011Z,102896.31
2023-01-23T02:12:28.277Z,102890.84
2023-01-23T02:15:00.902Z,102889.69
2023-01-23T02:17:29.199Z,102896.75
2023-01-23T02:20:04.981Z,102891.84
2023-01-23T02:22:44.093Z,102907.34
2023-01-23T02:25:21.121Z,102909.16
2023-01-23T02:27:52.759Z,102911.91
2023-01-23T02:30:22.614Z,102907.81
2023-01-23T02:32:53.147Z,102908.91
2023-01-23T02:35:26.466Z,102906.53
2023-01-23T02:38:01.697Z,102905.16
2023-01-23T02:40:33.671Z,102901.38
2023-01-23T02:43:05.944Z,102905.50
2023-01-23T02:45:38.894Z,102906.19
2023-01-23T02:48:08.283Z,102908.53
2023-01-23T02:50:39.412Z,102909.28
2023-01-23T02:53:08.046Z,102905.84
2023-01-23T02:55:39.912Z,102902.00
2023-01-23T02:58:27.361Z,102914.38
2023-01-23T03:00:56.766Z,102913.50
2023-01-23T03:03:25.796Z,102920.91
2023-01-23T03:05:55.711Z,102922.31
2023-01-23T03:08:36.097Z,102923.97
2023-01-23T03:11:06.071Z,102919.50
2023-01-23T03:13:36.622Z,102928.06
2023-01-23T03:16:06.932Z,102920.28
2023-01-23T03:18:49.157Z,102926.81
2023-01-23T03:21:22.534Z,102921.03
2023-01-23T03:23:51.762Z,102915.69
2023-01-23T03:26:21.090Z,102929.47
2023-01-23T03:29:10.735Z,102933.56
2023-01-23T03:31:39.914Z,102936.13
2023-01-23T03:34:08.034Z,102934.53
2023-01-23T03:36:39.733Z,102926.34
2023-01-23T03:39:27.024Z,102921.75
2023-01-23T03:41:56.927Z,102915.50
2023-01-23T03:44:29.487Z,102914.88
2023-01-23T03:46:58.234Z,102923.28
2023-01-23T03:49:27.016Z,102916.84
2023-01-23T03:52:00.851Z,102919.19
2023-01-23T03:54:33.567Z,102919.50
2023-01-23T03:57:06.727Z,102923.81
2023-01-23T03:59:51.505Z,102926.63
2023-01-23T04:02:22.244Z,102935.22
2023-01-23T04:04:50.897Z,102935.56
2023-01-23T04:07:20.796Z,102940.41
2023-01-23T04:09:51.585Z,102934.06
2023-01-23T04:12:21.298Z,102928.59
2023-01-23T04:14:55.744Z,102928.41
2023-01-23T04:17:23.707Z,102933.66
2023-01-23T04:19:53.518Z,102939.09
2023-01-23T04:22:22.719Z,102932.84
2023-01-23T04:24:52.818Z,102948.59
2023-01-23T04:27:22.381Z,102947.56
2023-01-23T04:29:54.456Z,102955.22
2023-01-23T04:32:23.767Z,102954.88
2023-01-23T04:34:54.916Z,102956.91
2023-01-23T04:37:24.223Z,102961.75
2023-01-23T04:39:52.890Z,102949.38
2023-01-23T04:42:27.721Z,102954.72
2023-01-23T04:45:19.420Z,102947.88
2023-01-23T04:47:47.323Z,102947.00
2023-01-23T04:50:16.978Z,102960.56
2023-01-23T04:52:47.173Z,102947.06
2023-01-23T04:55:15.074Z,102955.31
2023-01-23T04:57:45.117Z,102955.13
2023-01-23T05:00:24.620Z,102960.16
2023-01-23T05:02:53.541Z,102956.34
2023-01-23T05:05:22.584Z,102968.59
2023-01-23T05:07:53.888Z,102976.38
2023-01-23T05:10:22.981Z,102969.81
2023-01-23T05:12:52.680Z,102964.31
2023-01-23T05:15:22.293Z,102959.34
2023-01-23T05:17:53.171Z,102958.72
2023-01-23T05:20:23.449Z,102958.06
2023-01-23T05:22:54.575Z,102968.94
2023-01-23T05:25:31.119Z,102970.13
2023-01-23T05:28:00.748Z,102966.84
2023-01-23T05:30:28.851Z,102967.66
2023-01-23T05:33:13.606Z,102963.97
2023-01-23T05:35:42.030Z,102969.56
2023-01-23T05:38:11.463Z,102969.59
2023-01-23T05:40:39.487Z,102960.63
2023-01-23T05:43:15.090Z,102974.63
2023-01-23T05:46:03.885Z,102973.94
2023-01-23T05:48:44.898Z,102976.03
2023-01-23T05:51:16.960Z,102980.03
2023-01-23T05:53:47.356Z,102976.50
2023-01-23T05:56:17.109Z,102992.59
2023-01-23T05:59:05.706Z,103003.63
2023-01-23T06:01:43.201Z,103010.78
2023-01-23T06:04:31.339Z,103005.91
2023-01-23T06:07:22.666Z,103010.28
2023-01-23T06:09:54.212Z,103017.59
2023-01-23T06:12:23.861Z,103018.03
2023-01-23T06:14:53.916Z,103021.94
2023-01-23T06:17:22.383Z,103016.44
2023-01-23T06:19:52.765Z,103024.72
2023-01-23T06:22:23.168Z,103039.66
2023-01-23T06:25:03.926Z,103032.88
2023-01-23T06:27:32.206Z,103046.84
2023-01-23T06:30:05.536Z,103031.38
2023-01-23T06:32:38.125Z,103042.97
2023-01-23T06:35:09.587Z,103047.13
2023-01-23T06:37:41.394Z,103043.28
2023-01-23T06:40:13.906Z,103042.16
2023-01-23T06:42:48.210Z,103042.25
2023-01-23T06:45:17.469Z,103050.41
2023-01-23T06:47:46.679Z,103048.50
2023-01-23T06:50:18.243Z,103051.03
2023-01-23T06:52:47.154Z,103058.50
2023-01-23T06:55:15.311Z,103068.69
2023-01-23T06:57:45.373Z,103075.47
2023-01-23T07:00:15.256Z,103067.78
2023-01-23T07:02:45.642Z,103082.53
2023-01-23T07:05:14.823Z,103070.84
2023-01-23T07:07:49.449Z,103078.13
2023-01-23T07:10:17.999Z,103080.00
2023-01-23T07:12:46.675Z,103080.72
2023-01-23T07:15:14.690Z,103084.31
2023-01-23T07:17:44.529Z,103097.06
2023-01-23T07:20:14.262Z,103093.41
2023-01-23T07:22:48.065Z,103101.19
2023-01-23T07:25:16.232Z,103098.97
2023-01-23T07:27:44.312Z,103100.34
2023-01-23T07:30:13.879Z,103098.06
2023-01-23T07:32:56.317Z,103097.44
2023-01-23T07:35:24.311Z,103104.28
2023-01-23T07:37:53.851Z,103094.34
2023-01-23T07:40:23.204Z,103105.06
2023-01-23T07:42:53.659Z,103106.00
2023-01-23T07:45:27.634Z,103115.28
2023-01-23T07:47:56.527Z,103114.38
2023-01-23T07:50:28.619Z,103114.50
2023-01-23T07:52:59.496Z,103119.28
2023-01-23T07:55:29.058Z,103119.91
2023-01-23T07:57:58.127Z,103120.88
2023-01-23T08:00:32.028Z,103124.25
2023-01-23T08:03:00.210Z,103122.75
2023-01-23T08:05:28.133Z,103116.94
2023-01-23T08:08:12.192Z,103124.22
2023-01-23T08:10:41.303Z,103131.84
2023-01-23T08:13:11.968Z,103135.44
2023-01-23T08:15:40.151Z,103133.34
2023-01-23T08:18:08.448Z,103137.22
2023-01-23T08:20:36.376Z,103132.09
2023-01-23T08:23:06.697Z,103138.63
2023-01-23T08:25:35.080Z,103138.09
2023-01-23T08:28:03.579Z,103138.13
2023-01-23T08:30:31.967Z,103136.72
2023-01-23T08:33:02.590Z,103149.59
2023-01-23T08:35:30.968Z,103148.25
2023-01-23T08:37:58.935Z,103156.22
2023-01-23T08:40:30.170Z,103148.53
2023-01-23T08:43:01.059Z,103153.44
2023-01-23T08:45:28.946Z,103149.00
2023-01-23T08:47:58.955Z,103146.97
2023-01-23T08:50:27.139Z,103150.47
2023-01-23T08:52:56.027Z,103151.41
2023-01-23T08:55:23.970Z,103154.31
2023-01-23T08:57:53.261Z,103157.72
2023-01-23T09:00:22.869Z,103151.00
2023-01-23T09:02:52.014Z,103147.41
2023-01-23T09:05:20.439Z,103156.31
2023-01-23T09:07:49.717Z,103152.53
2023-01-23T09:10:18.249Z,103159.81
2023-01-23T09:12:46.651Z,103158.91
2023-01-23T09:15:17.511Z,103162.56
2023-01-23T09:17:45.885Z,103164.69
2023-01-23T09:20:13.925Z,103167.28
2023-01-23T09:22:43.036Z,103157.50
2023-01-23T09:25:17.185Z,103165.38
2023-01-23T09:27:46.258Z,103163.81
2023-01-23T09:30:18.486Z,103178.88
2023-01-23T09:32:48.025Z,103179.41
2023-01-23T09:35:18.028Z,103180.63
2023-01-23T09:38:20.813Z,103195.31
2023-01-23T09:40:56.393Z,103204.56
2023-01-23T09:43:29.967Z,103207.28
2023-01-23T09:46:08.900Z,103206.78
2023-01-23T09:48:49.145Z,103213.66
2023-01-23T09:51:28.857Z,103215.97
2023-01-23T09:54:06.580Z,103217.81
2023-01-23T09:56:43.499Z,103212.06
2023-01-23T09:59:17.149Z,103206.56
2023-01-23T10:01:46.866Z,103215.25
2023-01-23T10:04:20.500Z,103218.19
2023-01-23T10:07:19.009Z,103209.78
2023-01-23T10:10:06.925Z,103216.25
2023-01-23T10:12:50.402Z,103218.47
2023-01-23T10:15:29.149Z,103226.81
2023-01-23T10:18:12.372Z,103228.75
2023-01-23T10:20:59.196Z,103233.13
2023-01-23T10:23:43.018Z,103226.03
2023-01-23T10:26:17.150Z,103221.88
2023-01-23T10:28:47.794Z,103228.31
2023-01-23T10:31:30.962Z,103224.28
2023-01-23T10:34:13.205Z,103221.69
2023-01-23T10:36:54.951Z,103218.53
2023-01-23T10:39:28.487Z,103225.41
2023-01-23T10:42:02.466Z,103219.97
2023-01-23T10:44:31.973Z,103220.81
2023-01-23T10:47:03.975Z,103230.63
2023-01-23T10:49:41.428Z,103223.81
2023-01-23T10:52:36.150Z,103224.16
2023-01-23T10:55:07.697Z,103227.78
2023-01-23T10:57:48.603Z,103225.88
2023-01-23T11:00:23.616Z,103219.41
2023-01-23T11:02:52.629Z,103222.47
2023-01-23T11:05:50.620Z,103214.03
2023-01-23T11:08:29.175Z,103207.84
2023-01-23T11:11:19.872Z,103205.31
2023-01-23T11:14:10.548Z,103199.41
2023-01-23T11:16:39.365Z,103205.88
2023-01-23T11:19:19.202Z,103206.88
2023-01-23T11:21:57.285Z,103199.84
2023-01-23T11:24:39.828Z,103206.25
2023-01-23T11:27:20.223Z,103205.34
2023-01-23T11:30:04.301Z,103195.72
2023-01-23T11:32:36.330Z,103192.66
2023-01-23T11:35:13.543Z,103183.81
2023-01-23T11:37:43.611Z,103191.03
2023-01-23T11:40:15.049Z,103178.47
2023-01-23T11:42:46.202Z,103186.16
2023-01-23T11:45:19.906Z,103182.53
2023-01-23T11:48:10.735Z,103193.28
2023-01-23T11:50:54.823Z,103191.81
2023-01-23T11:53:42.288Z,103188.84
2023-01-23T11:56:29.560Z,103185.88
2023-01-23T11:59:24.663Z,103188.91
2023-01-23T12:02:07.955Z,103183.66
2023-01-23T12:05:01.521Z,103180.44
2023-01-23T12:07:30.616Z,103182.00
2023-01-23T12:10:09.134Z,103186.84
2023-01-23T12:12:52.565Z,103184.81
2023-01-23T12:15:32.988Z,103174.84
2023-01-23T12:18:08.570Z,103176.28
2023-01-23T12:20:49.339Z,103186.34
2023-01-23T12:23:36.434Z,103185.53
2023-01-23T12:26:14.810Z,103189.00
2023-01-23T12:29:01.375Z,103180.81
2023-01-23T12:31:48.910Z,103184.63
2023-01-23T12:34:41.286Z,103187.88
2023-01-23T12:37:30.593Z,103185.06
2023-01-23T12:40:11.163Z,103177.53
2023-01-23T12:42:48.782Z,103176.38
2023-01-23T12:45:23.234Z,103179.84
2023-01-23T12:48:00.927Z,103176.81
2023-01-23T12:50:42.321Z,103183.09
2023-01-23T12:53:13.460Z,103191.94
2023-01-23T12:55:52.915Z,103193.41
2023-01-23T12:58:24.940Z,103189.31
2023-01-23T13:01:07.117Z,103198.94
2023-01-23T13:03:52.989Z,103198.38
2023-01-23T13:06:36.163Z,103200.91
2023-01-23T13:09:17.798Z,103191.00
2023-01-23T13:11:57.220Z,103195.47
2023-01-23T13:15:03.489Z,103193.31
2023-01-23T13:17:39.840Z,103201.88
2023-01-23T13:20:48.296Z,103205.53
2023-01-23T13:23:40.419Z,103198.50
2023-01-23T13:26:29.215Z,103198.28
2023-01-23T13:29:01.523Z,103199.72
2023-01-23T13:31:45.211Z,103206.28
2023-01-23T13:34:38.181Z,103212.53
2023-01-23T13:37:34.263Z,103212.69
2023-01-23T13:40:16.335Z,103208.34
2023-01-23T13:42:44.657Z,103198.25
2023-01-23T13:45:27.492Z,103207.03
2023-01-23T14:20:46.372Z,103224.56
2023-01-23T14:23:27.041Z,103236.31
2023-01-23T14:25:54.813Z,103235.06
2023-01-23T14:28:22.633Z,103237.31
2023-01-23T14:30:59.668Z,103237.53
2023-01-23T14:33:28.158Z,103227.66
2023-01-23T14:35:57.486Z,103230.75
2023-01-23T14:38:35.051Z,103230.97
2023-01-23T14:41:07.294Z,103235.28
2023-01-23T14:43:37.615Z,103244.94
2023-01-23T14:46:09.535Z,103240.78
2023-01-23T14:48:42.812Z,103245.56
2023-01-23T14:51:19.865Z,103241.13
2023-01-23T14:54:00.650Z,103228.84
2023-01-23T14:56:32.958Z,103243.81
2023-01-23T14:59:04.225Z,103230.44
2023-01-23T15:01:35.546Z,103235.94
2023-01-23T15:04:05.073Z,103236.13
2023-01-23T15:06:35.495Z,103246.50
2023-01-23T15:09:15.355Z,103242.41
2023-01-23T15:11:44.796Z,103237.53
2023-01-23T15:14:25.684Z,103228.84
2023-01-23T15:17:01.201Z,103232.75
2023-01-23T15:19:29.753Z,103234.97
2023-01-23T15:22:09.307Z,103225.34
2023-01-23T15:24:38.886Z,103218.91
2023-01-23T15:27:24.332Z,103205.72
2023-01-23T15:29:52.640Z,103203.06
2023-01-23T15:32:26.440Z,103207.38
2023-01-23T15:34:57.581Z,103219.00
2023-01-23T15:37:27.569Z,103212.06
2023-01-23T15:40:01.933Z,103210.13
2023-01-23T15:42:32.250Z,103211.50
2023-01-23T15:45:01.916Z,103218.50
2023-01-23T15:47:30.632Z,103226.63
2023-01-23T15:50:01.359Z,103221.88
2023-01-23T15:52:31.186Z,103221.72
2023-01-23T15:55:04.016Z,103225.28
2023-01-23T15:57:31.831Z,103235.06
2023-01-23T16:00:00.280Z,103225.09
2023-01-23T16:02:31.615Z,103218.38
2023-01-23T16:05:01.818Z,103211.91
2023-01-23T16:07:34.676Z,103227.16
2023-01-23T16:10:06.227Z,103219.31
2023-01-23T16:12:35.482Z,103226.31
2023-01-23T16:15:03.361Z,103220.97
2023-01-23T16:17:31.073Z,103223.03
2023-01-23T16:19:58.793Z,103215.63
2023-01-23T16:22:29.503Z,103215.06
2023-01-23T16:24:58.690Z,103209.13
2023-01-23T16:27:28.195Z,103216.59
2023-01-23T16:29:56.818Z,103218.72
2023-01-23T16:32:25.015Z,103221.09
2023-01-23T16:34:52.988Z,103214.50
2023-01-23T16:37:20.860Z,103218.63
2023-01-23T16:39:48.706Z,103203.41
2023-01-23T16:42:20.375Z,103214.53
2023-01-23T16:44:49.795Z,103212.88
2023-01-23T16:47:17.668Z,103220.81
2023-01-23T16:49:54.218Z,103210.13
2023-01-23T16:52:26.033Z,103210.19
2023-01-23T16:54:55.404Z,103208.81
2023-01-23T16:57:24.541Z,103209.88
2023-01-23T16:59:56.196Z,103218.72
2023-01-23T17:02:28.264Z,103215.53
2023-01-23T17:04:56.085Z,103228.16
2023-01-23T17:07:23.874Z,103224.47
2023-01-23T17:09:51.761Z,103228.03
2023-01-23T17:12:22.908Z,103227.97
2023-01-23T17:14:52.559Z,103235.69
2023-01-23T17:17:28.713Z,103234.94
2023-01-23T17:19:57.519Z,103234.63
2023-01-23T17:22:30.347Z,103233.47
2023-01-23T17:24:58.176Z,103233.63
2023-01-23T17:27:25.967Z,103233.28
2023-01-23T17:29:53.683Z,103241.16
2023-01-23T17:32:30.455Z,103238.25
2023-01-23T17:35:01.807Z,103246.41
2023-01-23T17:37:30.922Z,103239.47
2023-01-23T17:39:58.657Z,103241.25
2023-01-23T17:42:26.541Z,103245.63
2023-01-23T17:44:54.302Z,103243.50
2023-01-23T17:47:22.148Z,103243.88
2023-01-23T17:49:54.492Z,103251.72
2023-01-23T17:52:22.723Z,103252.97
2023-01-23T17:54:51.172Z,103251.56
2023-01-23T17:57:19.070Z,103256.75
2023-01-23T17:59:46.773Z,103251.47
2023-01-23T18:02:25.479Z,103253.84
2023-01-23T18:04:54.960Z,103250.31
2023-01-23T18:07:22.807Z,103245.09
2023-01-23T18:09:50.672Z,103234.78
2023-01-23T18:12:30.028Z,103244.63
2023-01-23T18:15:06.064Z,103250.88
2023-01-23T18:17:38.640Z,103244.31
2023-01-23T18:20:21.286Z,103255.47
2023-01-23T18:22:50.171Z,103249.56
2023-01-23T18:25:20.007Z,103244.56
2023-01-23T18:27:51.505Z,103252.38
2023-01-23T18:30:29.063Z,103255.66
2023-01-23T18:33:29.176Z,103255.97
2023-01-23T18:36:30.583Z,103264.22
2023-01-23T18:39:19.122Z,103260.81
2023-01-23T18:42:00.460Z,103248.66
2023-01-23T18:44:38.131Z,103249.09
2023-01-23T18:47:12.089Z,103247.69
2023-01-23T18:49:41.184Z,103253.50
2023-01-23T18:52:31.232Z,103257.47
2023-01-23T18:55:19.745Z,103260.94
2023-01-23T18:58:05.489Z,103261.75
2023-01-23T19:00:41.719Z,103255.06
2023-01-23T19:03:29.495Z,103252.34
2023-01-23T19:06:01.640Z,103247.53
2023-01-23T19:08:32.728Z,103255.25
2023-01-23T19:11:06.078Z,103262.81
2023-01-23T19:13:43.872Z,103269.31
2023-01-23T19:16:18.527Z,103272.06
2023-01-23T19:18:48.328Z,103272.69
2023-01-23T19:21:20.318Z,103277.19
2023-01-23T19:23:57.023Z,103266.88
2023-01-23T19:26:27.662Z,103273.88
2023-01-23T19:28:56.222Z,103273.88
2023-01-23T19:31:26.672Z,103281.25
2023-01-23T19:33:55.629Z,103282.09
2023-01-23T19:36:24.325Z,103288.72
2023-01-23T19:39:00.330Z,103288.94
2023-01-23T19:41:35.903Z,103277.56
2023-01-23T19:44:03.779Z,103286.31
2023-01-23T19:46:33.662Z,103289.72
2023-01-23T19:49:03.928Z,103291.28
2023-01-23T19:51:33.566Z,103292.22
2023-01-23T19:54:03.447Z,103292.56
2023-01-23T19:56:31.527Z,103294.75
2023-01-23T19:58:59.537Z,103284.50
2023-01-23T20:01:37.162Z,103288.19
2023-01-23T20:04:06.313Z,103280.69
2023-01-23T20:06:34.365Z,103283.88
2023-01-23T20:09:03.887Z,103288.63
2023-01-23T20:11:31.814Z,103289.22
2023-01-23T20:13:59.546Z,103299.03
2023-01-23T20:16:27.689Z,103300.25
2023-01-23T20:18:56.109Z,103311.81
2023-01-23T20:21:25.337Z,103311.28
2023-01-23T20:23:53.520Z,103306.69
2023-01-23T20:26:22.705Z,103312.38
2023-01-23T20:28:53.210Z,103318.91
2023-01-23T20:31:22.244Z,103305.78
2023-01-23T20:33:50.358Z,103296.59
2023-01-23T20:36:18.247Z,103308.72
2023-01-23T20:38:46.439Z,103310.72
2023-01-23T20:41:16.663Z,103309.72
2023-01-23T20:43:46.457Z,103313.53
2023-01-23T20:46:15.572Z,103302.56
2023-01-23T20:48:45.285Z,103307.63
2023-01-23T20:51:15.099Z,103305.09
2023-01-23T20:53:43.921Z,103304.75
2023-01-23T20:56:13.563Z,103296.13
2023-01-23T20:59:00.838Z,103300.00
2023-01-23T21:01:52.505Z,103295.28
2023-01-23T21:04:20.870Z,103299.28
2023-01-23T21:06:49.057Z,103304.31
2023-01-23T21:09:18.395Z,103296.53
2023-01-23T21:11:46.790Z,103286.84
2023-01-23T21:14:15.003Z,103293.47
2023-01-23T21:16:44.465Z,103294.69
2023-01-23T21:19:12.352Z,103294.34
2023-01-23T21:21:40.789Z,103294.44
2023-01-23T21:24:09.215Z,103302.13
2023-01-23T21:26:38.606Z,103301.81
2023-01-23T21:29:07.046Z,103307.75
2023-01-23T21:31:39.229Z,103310.19
2023-01-23T21:34:19.409Z,103307.72
2023-01-23T21:36:48.419Z,103309.53
2023-01-23T21:39:17.122Z,103310.38
2023-01-23T21:41:45.487Z,103308.03
2023-01-23T21:44:14.048Z,103300.84
2023-01-23T21:46:42.033Z,103308.41
2023-01-23T21:49:10.279Z,103305.63
2023-01-23T21:51:39.443Z,103306.31
2023-01-23T21:54:07.427Z,103302.59
2023-01-23T21:56:35.188Z,103305.22
2023-01-23T21:59:03.092Z,103305.56
2023-01-23T22:01:33.761Z,103317.09
2023-01-23T22:04:03.423Z,103312.84
2023-01-23T22:06:31.745Z,103309.72
2023-01-23T22:09:00.905Z,103308.34
2023-01-23T22:11:29.028Z,103312.69
2023-01-23T22:13:57.077Z,103306.34
2023-01-23T22:16:40.190Z,103307.13
2023-01-23T22:19:14.729Z,103314.25
2023-01-23T22:21:43.698Z,103314.56
2023-01-23T22:24:13.024Z,103321.53
2023-01-23T22:26:40.883Z,103310.06
2023-01-23T22:29:08.964Z,103310.25
2023-01-23T22:31:36.855Z,103310.25
2023-01-23T22:34:04.741Z,103311.97
2023-01-23T22:36:32.566Z,103315.03
2023-01-23T22:39:00.465Z,103316.38
2023-01-23T22:41:29.595Z,103311.28
2023-01-23T22:43:59.167Z,103314.41
2023-01-23T22:46:27.271Z,103319.00
2023-01-23T22:48:55.155Z,103315.00
2023-01-23T22:51:25.549Z,103323.66
2023-01-23T22:53:54.816Z,103316.13
2023-01-23T22:56:23.029Z,103313.28
2023-01-23T22:58:54.295Z,103319.03
2023-01-23T23:01:23.522Z,103313.13
2023-01-23T23:03:52.160Z,103310.81
2023-01-23T23:06:20.955Z,103318.13
2023-01-23T23:08:49.230Z,103321.00
2023-01-23T23:11:19.090Z,103315.69
2023-01-23T23:13:47.425Z,103321.84
2023-01-23T23:16:18.700Z,103326.88
2023-01-23T23:18:48.306Z,103333.13
2023-01-23T23:21:18.659Z,103330.50
2023-01-23T23:23:47.007Z,103326.66
2023-01-23T23:26:15.399Z,103321.72
2023-01-23T23:28:43.371Z,103340.66
2023-01-23T23:31:11.283Z,103328.69
2023-01-23T23:33:40.878Z,103323.94
2023-01-23T23:36:09.508Z,103330.19
2023-01-23T23:38:37.966Z,103320.94
2023-01-23T23:41:09.394Z,103312.44
2023-01-23T23:43:37.203Z,103314.84
2023-01-23T23:46:08.676Z,103318.03
2023-01-23T23:48:38.391Z,103325.31
2023-01-23T23:51:09.534Z,103314.56
2023-01-23T23:53:37.714Z,103319.22
2023-01-23T23:56:06.910Z,103315.38
2023-01-23T23:58:37.004Z,103319.97
